createdAt,value
2022-12-28T06:31:16.291Z,6.00
2022-12-28T06:33:43.988Z,6.00
2022-12-28T06:36:19.980Z,6.10
2022-12-28T06:38:50.390Z,6.10
2022-12-28T06:41:19.697Z,6.10
2022-12-28T06:43:48.025Z,6.10
2022-12-28T06:46:17.232Z,6.10
2022-12-28T06:48:44.678Z,6.00
2022-12-28T06:51:15.069Z,5.90
2022-12-28T06:53:43.302Z,5.90
2022-12-28T06:56:13.456Z,5.80
2022-12-28T06:58:41.331Z,5.80
2022-12-28T07:01:12.044Z,5.70
2022-12-28T07:03:39.724Z,5.60
2022-12-28T07:06:07.526Z,5.60
2022-12-28T07:08:35.691Z,5.70
2022-12-28T07:11:06.828Z,5.80
2022-12-28T07:13:35.030Z,6.00
2022-12-28T07:16:04.644Z,6.20
2022-12-28T07:18:33.114Z,6.30
2022-12-28T07:21:04.162Z,6.40
2022-12-28T07:23:31.664Z,6.50
2022-12-28T07:26:05.483Z,6.60
2022-12-28T07:28:32.947Z,6.70
2022-12-28T07:31:05.888Z,6.70
2022-12-28T07:33:33.813Z,6.70
2022-12-28T07:36:01.196Z,6.80
2022-12-28T07:38:28.370Z,6.80
2022-12-28T07:41:14.445Z,6.90
2022-12-28T07:43:42.001Z,6.90
2022-12-28T07:46:13.263Z,6.90
2022-12-28T07:48:41.765Z,7.00
2022-12-28T07:51:19.132Z,6.90
2022-12-28T07:53:48.421Z,7.20
2022-12-28T07:56:16.568Z,7.30
2022-12-28T08:01:19.288Z,7.20
2022-12-28T08:03:47.286Z,7.30
2022-12-28T08:06:20.762Z,7.30
2022-12-28T08:08:50.014Z,7.30
2022-12-28T08:11:20.502Z,7.30
2022-12-28T08:13:49.543Z,7.30
2022-12-28T08:16:18.787Z,7.40
2022-12-28T08:18:46.648Z,7.40
2022-12-28T08:21:17.448Z,7.30
2022-12-28T08:23:45.218Z,7.40
2022-12-28T08:26:17.749Z,7.40
2022-12-28T08:28:47.492Z,7.50
2022-12-28T08:31:18.255Z,7.50
2022-12-28T08:33:45.875Z,7.60
2022-12-28T08:36:13.326Z,7.50
2022-12-28T08:38:42.225Z,7.50
2022-12-28T08:41:12.798Z,7.60
2022-12-28T08:43:40.006Z,7.60
2022-12-28T08:46:12.057Z,7.70
2022-12-28T08:48:40.072Z,7.70
2022-12-28T08:51:09.677Z,7.80
2022-12-28T08:53:37.854Z,7.90
2022-12-28T08:56:10.399Z,8.00
2022-12-28T08:58:39.276Z,8.00
2022-12-28T09:01:09.050Z,8.10
2022-12-28T09:03:38.542Z,8.20
2022-12-28T09:06:08.521Z,8.20
2022-12-28T09:08:36.381Z,8.30
2022-12-28T09:11:07.408Z,8.30
2022-12-28T09:13:35.590Z,8.40
2022-12-28T09:18:42.108Z,8.50
2022-12-28T09:21:14.018Z,8.60
2022-12-28T09:23:41.982Z,8.70
2022-12-28T09:26:16.072Z,8.70
2022-12-28T09:28:49.186Z,8.80
2022-12-28T09:31:17.243Z,8.80
2022-12-28T09:36:48.186Z,9.10
2022-12-28T09:39:18.127Z,9.30
2022-12-28T09:42:11.236Z,9.40
2022-12-28T09:44:47.254Z,9.60
2022-12-28T09:47:26.342Z,9.60
2022-12-28T09:50:07.080Z,9.60
2022-12-28T09:52:47.832Z,9.60
2022-12-28T09:55:19.379Z,9.60
2022-12-28T09:57:51.708Z,9.50
2022-12-28T10:00:22.291Z,9.30
2022-12-28T10:02:55.426Z,9.30
2022-12-28T10:05:23.204Z,9.10
2022-12-28T10:07:52.904Z,9.00
2022-12-28T10:10:23.237Z,9.00
2022-12-28T10:12:51.800Z,8.90
2022-12-28T10:15:19.815Z,9.00
2022-12-28T10:17:46.959Z,9.20
2022-12-28T10:20:20.555Z,9.40
2022-12-28T10:22:52.196Z,9.60
2022-12-28T10:25:22.847Z,9.70
2022-12-28T10:27:50.623Z,9.90
2022-12-28T10:30:26.773Z,10.00
2022-12-28T10:33:02.118Z,9.90
2022-12-28T10:35:42.720Z,9.90
2022-12-28T10:38:30.636Z,9.90
2022-12-28T10:41:05.413Z,9.90
2022-12-28T10:43:37.332Z,10.00
2022-12-28T10:46:13.896Z,10.20
2022-12-28T10:48:47.334Z,10.20
2022-12-28T10:51:18.233Z,10.00
2022-12-28T10:53:48.400Z,10.00
2022-12-28T10:59:24.666Z,10.10
2022-12-28T11:01:52.071Z,9.90
2022-12-28T11:04:22.963Z,9.90
2022-12-28T11:06:56.398Z,10.00
2022-12-28T11:09:26.738Z,10.00
2022-12-28T11:11:56.385Z,10.00
2022-12-28T11:14:32.174Z,9.90
2022-12-28T11:17:16.322Z,10.00
2022-12-28T11:19:44.076Z,10.00
2022-12-28T11:22:13.508Z,10.10
2022-12-28T11:24:40.952Z,10.20
2022-12-28T11:27:13.748Z,10.20
2022-12-28T11:29:45.192Z,10.30
2022-12-28T11:32:21.760Z,10.40
2022-12-28T11:34:49.983Z,10.70
2022-12-28T11:37:17.313Z,10.90
2022-12-28T11:39:47.497Z,10.90
2022-12-28T11:45:15.634Z,10.70
2022-12-28T11:47:43.090Z,10.60
2022-12-28T11:53:34.547Z,10.70
2022-12-28T11:56:09.093Z,10.70
2022-12-28T11:58:47.039Z,10.50
2022-12-28T12:04:15.893Z,10.30
2022-12-28T12:09:28.187Z,8.80
2022-12-28T12:11:59.250Z,10.20
2022-12-28T12:14:35.228Z,10.20
2022-12-28T12:17:07.480Z,10.30
2022-12-28T12:19:37.860Z,10.60
2022-12-28T12:22:28.256Z,10.80
2022-12-28T12:25:18.451Z,10.80
2022-12-28T12:27:52.004Z,10.80
2022-12-28T12:30:22.038Z,10.80
2022-12-28T12:32:59.299Z,10.80
2022-12-28T12:35:30.487Z,10.90
2022-12-28T12:38:27.125Z,11.10
2022-12-28T12:41:24.056Z,11.20
2022-12-28T12:44:19.091Z,11.10
2022-12-28T12:47:26.106Z,10.90
2022-12-28T12:50:22.706Z,10.80
2022-12-28T12:53:20.041Z,10.70
2022-12-28T12:56:18.098Z,10.80
2022-12-28T12:58:58.946Z,10.80
2022-12-28T13:01:39.393Z,10.70
2022-12-28T13:04:09.269Z,10.70
2022-12-28T13:06:39.609Z,10.60
2022-12-28T13:09:09.829Z,10.50
2022-12-28T13:11:38.613Z,10.30
2022-12-28T13:14:06.388Z,10.50
2022-12-28T13:16:33.705Z,10.60
2022-12-28T13:19:05.083Z,10.50
2022-12-28T13:21:49.604Z,10.60
2022-12-28T13:24:23.392Z,10.60
2022-12-28T13:26:51.204Z,10.60
2022-12-28T13:29:21.768Z,10.60
2022-12-28T13:31:49.992Z,10.50
2022-12-28T13:34:21.646Z,11.10
2022-12-28T13:36:56.396Z,10.40
2022-12-28T13:39:25.838Z,10.40
2022-12-28T13:41:58.029Z,10.40
2022-12-28T13:44:46.898Z,10.40
2022-12-28T13:47:26.576Z,10.30
2022-12-28T13:50:00.388Z,10.20
2022-12-28T13:52:37.119Z,10.20
2022-12-28T13:55:10.495Z,10.10
2022-12-28T13:57:50.090Z,10.00
2022-12-28T14:00:22.050Z,9.90
2022-12-28T14:02:53.168Z,9.80
2022-12-28T14:05:24.988Z,9.70
2022-12-28T14:07:54.306Z,9.50
2022-12-28T14:10:22.566Z,9.50
2022-12-28T14:12:50.636Z,9.40
2022-12-28T14:15:18.641Z,9.30
2022-12-28T14:17:48.314Z,9.20
2022-12-28T14:20:16.112Z,9.10
2022-12-28T14:22:43.526Z,9.10
2022-12-28T14:25:15.785Z,9.10
2022-12-28T14:27:57.031Z,9.10
2022-12-28T14:30:30.822Z,9.00
2022-12-28T14:33:02.408Z,9.00
2022-12-28T14:35:29.581Z,9.00
2022-12-28T14:38:00.258Z,8.90
2022-12-28T14:40:32.553Z,8.90
2022-12-28T14:43:09.773Z,8.90
2022-12-28T14:46:07.429Z,8.90
2022-12-28T14:48:37.522Z,8.90
2022-12-28T14:51:23.640Z,8.80
2022-12-28T14:56:53.378Z,8.70
2022-12-28T14:59:24.513Z,8.70
2022-12-28T15:01:52.632Z,8.60
2022-12-28T15:04:35.638Z,8.60
2022-12-28T15:07:05.214Z,8.50
2022-12-28T15:09:32.997Z,8.50
2022-12-28T15:12:20.544Z,8.30
2022-12-28T15:14:49.288Z,8.30
2022-12-28T15:17:16.770Z,8.30
2022-12-28T15:19:45.302Z,8.20
2022-12-28T15:22:12.945Z,8.10
2022-12-28T15:24:41.749Z,8.00
2022-12-28T15:27:08.938Z,8.00
2022-12-28T15:32:23.330Z,7.90
2022-12-28T15:34:50.991Z,7.80
2022-12-28T15:37:18.136Z,7.70
2022-12-28T15:39:45.363Z,7.60
2022-12-28T15:42:12.517Z,7.60
2022-12-28T15:44:39.848Z,7.60
2022-12-28T15:47:07.109Z,7.60
2022-12-28T15:49:34.296Z,7.50
2022-12-28T15:52:01.413Z,7.50
2022-12-28T15:54:28.507Z,7.40
2022-12-28T15:56:56.529Z,7.40
2022-12-28T15:59:24.519Z,7.40
2022-12-28T16:01:51.941Z,7.30
2022-12-28T16:04:19.415Z,7.30
2022-12-28T16:06:46.550Z,7.30
2022-12-28T16:09:14.003Z,7.30
2022-12-28T16:11:41.853Z,7.30
2022-12-28T16:14:15.346Z,7.30
2022-12-28T16:16:43.381Z,7.30
2022-12-28T16:19:13.594Z,7.20
2022-12-28T16:21:41.669Z,7.20
2022-12-28T16:24:09.159Z,7.20
2022-12-28T16:26:36.631Z,7.20
2022-12-28T16:29:04.142Z,7.20
2022-12-28T16:31:33.878Z,7.20
2022-12-28T16:34:03.712Z,7.20
2022-12-28T16:36:31.107Z,7.10
2022-12-28T16:38:58.988Z,7.20
2022-12-28T16:41:28.833Z,7.20
2022-12-28T16:44:05.203Z,7.20
2022-12-28T16:46:32.378Z,7.20
2022-12-28T16:49:02.038Z,7.20
2022-12-28T16:51:30.578Z,7.20
2022-12-28T16:53:58.225Z,7.20
2022-12-28T16:56:25.493Z,7.10
2022-12-28T16:58:57.335Z,7.10
